Weather at Kissimmee Gateway Airport

Public forecast

Using degrees Fahrenheit for public forecast. Weather courtesy of forecast.io.

Current aviation weather report (METAR) for Kissimmee Gateway Airport

Retrieved 2020/10/19 14:56 UTC (4 minutes ago):

KISM 191456Z 09015G19KT 10SM BKN027 29/22 A3007 RMK AO2 SLP182 T02890222 53003

Aviation forecast (TAF) for Kissimmee Gateway Airport

Retrieved 2020/10/19 12:27 UTC (3 hours ago):

TAF KISM 191125Z 1912/2012 06008KT P6SM FEW035 FM191500 06012G20KT P6SM SCT025 BKN035 FM191800 07014G22KT P6SM VCSH SCT030 BKN040 FM200000 04010KT P6SM FEW035 BKN250 AMD NOT SKED